地図

経路データ

SID SEASON NUMBER BASIN SUBBASIN NAME ISO_TIME NATURE LAT LON WMO_WIND WMO_PRES WMO_AGENCY TRACK_TYPE DIST2LAND LANDFALL IFLAG USA_AGENCY USA_ATCF_ID USA_LAT USA_LON USA_RECORD USA_STATUS USA_WIND USA_PRES USA_SSHS USA_R34_NE USA_R34_SE USA_R34_SW USA_R34_NW USA_R50_NE USA_R50_SE USA_R50_SW USA_R50_NW USA_R64_NE USA_R64_SE USA_R64_SW USA_R64_NW USA_POCI USA_ROCI USA_RMW USA_EYE TOKYO_LAT TOKYO_LON TOKYO_GRADE TOKYO_WIND TOKYO_PRES TOKYO_R50_DIR TOKYO_R50_LONG TOKYO_R50_SHORT TOKYO_R30_DIR TOKYO_R30_LONG TOKYO_R30_SHORT TOKYO_LAND CMA_LAT CMA_LON CMA_CAT CMA_WIND CMA_PRES HKO_LAT HKO_LON HKO_CAT HKO_WIND HKO_PRES NEWDELHI_LAT NEWDELHI_LON NEWDELHI_GRADE NEWDELHI_WIND NEWDELHI_PRES NEWDELHI_CI NEWDELHI_DP NEWDELHI_POCI REUNION_LAT REUNION_LON REUNION_TYPE REUNION_WIND REUNION_PRES REUNION_TNUM REUNION_CI REUNION_RMW REUNION_R34_NE REUNION_R34_SE REUNION_R34_SW REUNION_R34_NW REUNION_R50_NE REUNION_R50_SE REUNION_R50_SW REUNION_R50_NW REUNION_R64_NE REUNION_R64_SE REUNION_R64_SW REUNION_R64_NW BOM_LAT BOM_LON BOM_TYPE BOM_WIND BOM_PRES BOM_TNUM BOM_CI BOM_RMW BOM_R34_NE BOM_R34_SE BOM_R34_SW BOM_R34_NW BOM_R50_NE BOM_R50_SE BOM_R50_SW BOM_R50_NW BOM_R64_NE BOM_R64_SE BOM_R64_SW BOM_R64_NW BOM_ROCI BOM_POCI BOM_EYE BOM_POS_METHOD BOM_PRES_METHOD NADI_LAT NADI_LON NADI_CAT NADI_WIND NADI_PRES WELLINGTON_LAT WELLINGTON_LON WELLINGTON_WIND WELLINGTON_PRES DS824_LAT DS824_LON DS824_STAGE DS824_WIND DS824_PRES TD9636_LAT TD9636_LON TD9636_STAGE TD9636_WIND TD9636_PRES TD9635_LAT TD9635_LON TD9635_WIND TD9635_PRES TD9635_ROCI NEUMANN_LAT NEUMANN_LON NEUMANN_CLASS NEUMANN_WIND NEUMANN_PRES MLC_LAT MLC_LON MLC_CLASS MLC_WIND MLC_PRES USA_GUST BOM_GUST BOM_GUST_PER REUNION_GUST REUNION_GUST_PER USA_SEAHGT USA_SEARAD_NE USA_SEARAD_SE USA_SEARAD_SW USA_SEARAD_NW STORM_SPEED STORM_DIR
1857230N10315 1857 9 NA NA NOT_NAMED 1857-08-17 12:00:00 TS 9.60000 -45.5000 main 873 826 _____________O -1 9.60000 -45.5000 TS 35 14 275
1857230N10315 1857 9 NA NA NOT_NAMED 1857-08-17 15:00:00 TS 9.66278 -46.1999 main 826 775 _____________P -1 9.66278 -46.1999 TS 37 14 274
1857230N10315 1857 9 NA NA NOT_NAMED 1857-08-17 18:00:00 TS 9.70000 -46.9000 main 775 730 _____________O -1 9.70000 -46.9000 TS 40 14 272
1857230N10315 1857 9 NA NA NOT_NAMED 1857-08-17 21:00:00 TS 9.69986 -47.6001 main 730 689 _____________P -1 9.69986 -47.6001 TS 45 14 270
1857230N10315 1857 9 NA NA NOT_NAMED 1857-08-18 00:00:00 TS 9.70000 -48.3000 main 689 641 _____________O -1 9.70000 -48.3000 TS 50 14 272
1857230N10315 1857 9 NA NA NOT_NAMED 1857-08-18 03:00:00 TS 9.74990 -49.0074 main 641 606 _____________P -1 9.74990 -49.0074 TS 55 14 274
1857230N10315 1857 9 NA NA NOT_NAMED 1857-08-18 06:00:00 TS 9.80000 -49.7000 main 606 574 _____________O -1 9.80000 -49.7000 TS 60 13 272
1857230N10315 1857 9 NA NA NOT_NAMED 1857-08-18 09:00:00 TS 9.79979 -50.3501 main 569 541 _____________P -1 9.79979 -50.3501 TS 62 13 270
1857230N10315 1857 9 NA NA NOT_NAMED 1857-08-18 12:00:00 TS 9.80000 -51.0000 main 541 514 _____________O -1 9.80000 -51.0000 HU 65 13 272
1857230N10315 1857 9 NA NA NOT_NAMED 1857-08-18 15:00:00 TS 9.84245 -51.7000 main 514 490 _____________P -1 9.84245 -51.7000 HU 65 14 274
1857230N10315 1857 9 NA NA NOT_NAMED 1857-08-18 18:00:00 TS 9.90000 -52.4000 main 490 470 _____________O -1 9.90000 -52.4000 HU 65 13 275
1857230N10315 1857 9 NA NA NOT_NAMED 1857-08-18 21:00:00 TS 9.95733 -53.0575 main 475 462 _____________P -1 9.95733 -53.0575 HU 65 13 274
1857230N10315 1857 9 NA NA NOT_NAMED 1857-08-19 00:00:00 TS 10.0000 -53.7000 main 462 459 _____________O -1 10.0000 -53.7000 HU 65 13 272
1857230N10315 1857 9 NA NA NOT_NAMED 1857-08-19 03:00:00 TS 9.99992 -54.3576 main 459 459 _____________P -1 9.99992 -54.3576 HU 65 13 270
1857230N10315 1857 9 NA NA NOT_NAMED 1857-08-19 06:00:00 TS 10.0000 -55.0000 main 459 435 _____________O -1 10.0000 -55.0000 HU 65 12 272
1857230N10315 1857 9 NA NA NOT_NAMED 1857-08-19 09:00:00 TS 10.0498 -55.5999 main 435 387 _____________P -1 10.0498 -55.5999 HU 65 12 275
1857230N10315 1857 9 NA NA NOT_NAMED 1857-08-19 12:00:00 TS 10.1000 -56.2000 main 387 337 _____________O -1 10.1000 -56.2000 HU 65 12 272
1857230N10315 1857 9 NA NA NOT_NAMED 1857-08-19 15:00:00 TS 10.0999 -56.8351 main 337 287 _____________P -1 10.0999 -56.8351 HU 62 13 270
1857230N10315 1857 9 NA NA NOT_NAMED 1857-08-19 18:00:00 TS 10.1000 -57.5000 main 287 249 _____________O -1 10.1000 -57.5000 TS 60 13 272
1857230N10315 1857 9 NA NA NOT_NAMED 1857-08-19 21:00:00 TS 10.1499 -58.1999 main 249 225 _____________P -1 10.1499 -58.1999 TS 55 14 274
1857230N10315 1857 9 NA NA NOT_NAMED 1857-08-20 00:00:00 TS 10.2000 -58.9000 main 225 164 _____________O -1 10.2000 -58.9000 TS 50 13 272
1857230N10315 1857 9 NA NA NOT_NAMED 1857-08-20 03:00:00 TS 10.1998 -59.5576 main 153 87 _____________P -1 10.1998 -59.5576 TS 45 13 270
1857230N10315 1857 9 NA NA NOT_NAMED 1857-08-20 06:00:00 TS 10.2000 -60.2000 main 87 21 _____________O -1 10.2000 -60.2000 TS 40 13 272
1857230N10315 1857 9 NA NA NOT_NAMED 1857-08-20 09:00:00 TS 10.2499 -60.8499 main 21 0 _____________P -1 10.2499 -60.8499 TS 35 13 274
1857230N10315 1857 9 NA CS NOT_NAMED 1857-08-20 12:00:00 TS 10.3000 -61.5000 main 0 0 _____________O -1 10.3000 -61.5000 TD 30 13 273
1857230N10315 1857 9 NA CS NOT_NAMED 1857-08-20 15:00:00 TS 10.3128 -62.1501 main 24 0 _____________P -1 10.3128 -62.1501 TD 27 13 270
1857230N10315 1857 9 NA NA NOT_NAMED 1857-08-20 18:00:00 TS 10.3000 -62.8000 main 0 _____________O -1 10.3000 -62.8000 TD 25 13 269

IBTrACS Databaseについて

本データベースは、米国NOAAが公開する1842年以降の世界の熱帯低気圧のベストトラックデータアーカイブInternational Best Track Archive for Climate Stewardship (IBTrACS)を、ウェブで閲覧しやすい形式に変換したものです。

最終更新日:2021-12-06